createdAt,value
2023-05-19T00:03:18.344Z,76.26
2023-05-19T00:07:42.214Z,76.46
2023-05-19T00:12:06.293Z,76.53
2023-05-19T00:16:30.485Z,76.71
2023-05-19T00:20:54.428Z,76.97
2023-05-19T00:25:18.393Z,76.88
2023-05-19T00:29:42.075Z,77.01
2023-05-19T00:34:04.472Z,76.92
2023-05-19T00:38:24.898Z,76.92
2023-05-19T00:42:48.794Z,76.99
2023-05-19T00:47:06.733Z,76.93
2023-05-19T00:51:31.525Z,76.91
2023-05-19T00:55:55.447Z,77.06
2023-05-19T01:00:19.246Z,77.34
2023-05-19T01:03:44.411Z,77.48
2023-05-19T01:06:57.794Z,77.54
2023-05-19T01:10:00.933Z,77.55
2023-05-19T01:13:05.371Z,77.68
2023-05-19T01:16:14.429Z,77.47
2023-05-19T01:19:46.935Z,77.63
2023-05-19T01:23:17.947Z,77.79
2023-05-19T01:26:26.599Z,78.02
2023-05-19T01:29:41.446Z,78.33
2023-05-19T01:32:46.072Z,78.36
2023-05-19T01:35:50.436Z,78.39
2023-05-19T01:38:57.358Z,78.51
2023-05-19T01:42:02.120Z,78.68
2023-05-19T01:45:06.805Z,78.75
2023-05-19T01:48:11.175Z,78.72
2023-05-19T01:51:15.050Z,78.85
2023-05-19T01:54:18.805Z,79.02
2023-05-19T01:57:33.332Z,78.92
2023-05-19T02:00:52.960Z,78.99
2023-05-19T02:04:40.119Z,79.13
2023-05-19T02:07:51.245Z,79.12
2023-05-19T02:11:10.799Z,79.15
2023-05-19T02:14:50.697Z,79.22
2023-05-19T02:17:55.869Z,79.31
2023-05-19T02:20:59.411Z,79.51
2023-05-19T02:24:02.518Z,79.41
2023-05-19T02:27:06.086Z,79.38
2023-05-19T02:30:10.692Z,79.39
2023-05-19T02:33:13.720Z,79.43
2023-05-19T02:36:16.555Z,79.41
2023-05-19T02:39:19.365Z,79.38
2023-05-19T02:42:23.412Z,79.24
2023-05-19T02:45:28.615Z,79.16
2023-05-19T02:48:33.686Z,79.21
2023-05-19T02:51:36.710Z,79.21
2023-05-19T02:54:39.641Z,79.31
2023-05-19T02:57:43.676Z,79.08
2023-05-19T03:00:46.743Z,79.08
2023-05-19T03:03:49.722Z,78.76
2023-05-19T03:06:54.249Z,78.81
2023-05-19T03:09:57.163Z,78.55
2023-05-19T03:13:00.064Z,78.68
2023-05-19T03:16:03.348Z,78.65
2023-05-19T03:19:06.286Z,78.73
2023-05-19T03:22:09.175Z,78.72
2023-05-19T03:25:12.019Z,78.80
2023-05-19T03:28:15.441Z,78.95
2023-05-19T03:31:18.660Z,78.94
2023-05-19T03:34:22.623Z,78.89
2023-05-19T03:37:26.051Z,78.95
2023-05-19T03:40:59.848Z,78.92
2023-05-19T03:44:02.962Z,79.03
2023-05-19T03:47:06.133Z,79.11
2023-05-19T03:50:42.694Z,79.31
2023-05-19T03:53:53.234Z,79.17
2023-05-19T03:56:56.517Z,79.14
2023-05-19T04:00:00.005Z,79.34
2023-05-19T04:03:03.250Z,79.36
2023-05-19T04:06:06.845Z,79.43
2023-05-19T04:09:14.520Z,79.35
2023-05-19T04:12:17.481Z,79.55
2023-05-19T04:15:21.783Z,79.69
2023-05-19T04:18:25.846Z,79.63
2023-05-19T04:21:29.897Z,79.68
2023-05-19T04:24:36.107Z,79.85
2023-05-19T04:27:39.387Z,80.06
2023-05-19T04:30:43.077Z,79.91
2023-05-19T04:33:47.697Z,80.05
2023-05-19T04:36:53.237Z,80.18
2023-05-19T04:39:57.438Z,80.17
2023-05-19T04:43:02.385Z,80.26
2023-05-19T04:46:06.458Z,80.33
2023-05-19T04:49:12.496Z,80.29
2023-05-19T04:52:16.043Z,80.13
2023-05-19T04:55:18.992Z,79.83
2023-05-19T04:58:26.668Z,79.93
2023-05-19T05:01:31.475Z,80.11
2023-05-19T05:04:36.174Z,79.98
2023-05-19T05:07:39.215Z,80.36
2023-05-19T05:10:42.366Z,80.15
2023-05-19T05:13:45.640Z,80.38
2023-05-19T05:16:50.825Z,80.87
2023-05-19T05:19:57.740Z,80.98
2023-05-19T05:23:02.139Z,81.31
2023-05-19T05:26:18.621Z,81.36
2023-05-19T05:29:22.981Z,81.65
2023-05-19T05:32:26.371Z,81.82
2023-05-19T05:35:30.058Z,81.82
2023-05-19T05:38:33.616Z,81.90
2023-05-19T05:41:36.683Z,81.99
2023-05-19T05:44:45.028Z,81.95
2023-05-19T05:47:48.541Z,81.78
2023-05-19T05:50:53.049Z,81.69
2023-05-19T05:54:01.585Z,81.75
2023-05-19T05:57:10.905Z,81.82
2023-05-19T06:00:17.623Z,81.93
2023-05-19T06:03:25.173Z,81.74
2023-05-19T06:06:28.889Z,81.57
2023-05-19T06:09:32.994Z,81.24
2023-05-19T06:12:40.292Z,81.33
2023-05-19T06:15:43.672Z,81.36
2023-05-19T06:18:59.023Z,81.17
2023-05-19T06:22:02.000Z,81.27
2023-05-19T06:25:07.094Z,81.29
2023-05-19T06:28:11.059Z,81.14
2023-05-19T06:31:14.387Z,81.48
2023-05-19T06:34:27.918Z,81.42
2023-05-19T06:37:30.864Z,81.25
2023-05-19T06:40:34.009Z,81.36
2023-05-19T06:43:37.104Z,81.24
2023-05-19T06:46:40.240Z,81.01
2023-05-19T06:49:44.318Z,81.03
2023-05-19T06:52:47.268Z,81.15
2023-05-19T06:55:58.732Z,81.28
2023-05-19T06:59:04.461Z,81.19
2023-05-19T07:02:11.240Z,80.97
2023-05-19T07:05:14.179Z,80.72
2023-05-19T07:08:17.531Z,80.66
2023-05-19T07:11:20.363Z,80.97
2023-05-19T07:14:23.895Z,81.41
2023-05-19T07:17:27.401Z,81.41
2023-05-19T07:20:30.683Z,81.31
2023-05-19T07:23:33.895Z,81.36
2023-05-19T07:26:37.003Z,81.48
2023-05-19T07:29:39.800Z,81.38
2023-05-19T07:32:42.667Z,81.69
2023-05-19T07:35:46.419Z,81.82
2023-05-19T07:38:49.423Z,81.76
2023-05-19T07:41:55.722Z,81.82
2023-05-19T07:44:58.508Z,82.20
2023-05-19T07:48:01.440Z,82.19
2023-05-19T07:51:04.554Z,81.90
2023-05-19T07:54:08.654Z,81.54
2023-05-19T07:57:11.514Z,81.30
2023-05-19T08:00:14.975Z,81.19
2023-05-19T08:03:18.369Z,81.11
2023-05-19T08:06:22.563Z,81.30
2023-05-19T08:09:25.381Z,80.71
2023-05-19T08:12:28.942Z,80.64
2023-05-19T08:15:31.827Z,80.59
2023-05-19T08:18:34.775Z,80.73
2023-05-19T08:21:37.753Z,80.95
2023-05-19T08:24:42.708Z,80.77
2023-05-19T08:27:46.186Z,81.11
2023-05-19T08:30:50.902Z,81.28
2023-05-19T08:33:53.988Z,81.34
2023-05-19T08:36:57.816Z,81.17
2023-05-19T08:40:00.806Z,80.84
2023-05-19T08:43:04.184Z,80.49
2023-05-19T08:46:08.238Z,80.36
2023-05-19T08:49:17.980Z,80.49
2023-05-19T08:52:35.951Z,80.55
2023-05-19T08:56:01.798Z,80.58
2023-05-19T08:59:05.290Z,80.46
2023-05-19T09:02:11.765Z,80.53
2023-05-19T09:05:16.826Z,80.82
2023-05-19T09:08:19.959Z,80.85
2023-05-19T09:11:22.955Z,80.87
2023-05-19T09:14:26.579Z,80.93
2023-05-19T09:17:29.738Z,80.74
2023-05-19T09:20:32.691Z,80.87
2023-05-19T09:23:36.067Z,80.92
2023-05-19T09:26:39.960Z,81.01
2023-05-19T09:29:43.179Z,80.87
2023-05-19T09:32:48.517Z,81.13
2023-05-19T09:35:52.005Z,80.49
2023-05-19T09:38:54.981Z,80.59
2023-05-19T09:42:00.395Z,80.31
2023-05-19T09:45:03.935Z,80.17
2023-05-19T09:48:07.578Z,80.28
2023-05-19T09:51:11.164Z,80.23
2023-05-19T09:54:17.545Z,80.54
2023-05-19T09:57:27.178Z,80.72
2023-05-19T10:00:32.868Z,80.71
2023-05-19T10:03:36.928Z,80.63
2023-05-19T10:06:39.952Z,80.56
2023-05-19T10:09:43.713Z,80.36
2023-05-19T10:12:47.765Z,80.29
2023-05-19T10:19:00.955Z,79.91
2023-05-19T10:22:04.096Z,79.94
2023-05-19T10:25:08.445Z,80.39
2023-05-19T10:28:18.574Z,80.25
2023-05-19T10:31:22.851Z,80.13
2023-05-19T10:34:54.566Z,79.95
2023-05-19T10:38:12.887Z,79.98
2023-05-19T10:41:39.910Z,80.31
2023-05-19T10:45:17.890Z,80.49
2023-05-19T10:48:21.891Z,80.37
2023-05-19T10:51:32.310Z,80.70
2023-05-19T10:54:47.665Z,80.38
2023-05-19T10:57:56.990Z,79.98
2023-05-19T11:01:02.991Z,80.01
2023-05-19T11:04:14.995Z,79.90
2023-05-19T11:07:20.051Z,79.57
2023-05-19T11:10:24.324Z,79.88
2023-05-19T11:13:28.469Z,79.99
2023-05-19T11:16:32.552Z,78.91
2023-05-19T11:19:36.324Z,78.65
2023-05-19T11:22:40.189Z,78.91
2023-05-19T11:25:51.510Z,79.15
2023-05-19T11:28:54.740Z,79.17
2023-05-19T11:31:57.670Z,79.32
2023-05-19T11:35:01.965Z,78.88
2023-05-19T11:38:06.742Z,78.70
2023-05-19T11:41:09.708Z,78.77
2023-05-19T11:44:12.549Z,78.67
2023-05-19T11:47:16.350Z,78.62
2023-05-19T11:50:20.611Z,79.11
2023-05-19T11:53:23.937Z,78.99
2023-05-19T11:56:26.902Z,79.12
2023-05-19T11:59:35.849Z,79.20
2023-05-19T12:02:39.409Z,78.72
2023-05-19T12:05:49.215Z,78.86
2023-05-19T12:08:54.669Z,79.33
2023-05-19T12:11:57.612Z,79.38
2023-05-19T12:15:03.640Z,78.74
2023-05-19T12:18:07.342Z,78.91
2023-05-19T12:21:10.837Z,79.28
2023-05-19T12:24:14.000Z,79.53
2023-05-19T12:27:23.392Z,79.39
2023-05-19T12:30:32.044Z,79.37
2023-05-19T12:33:35.927Z,79.19
2023-05-19T12:36:39.201Z,79.12
2023-05-19T12:39:43.114Z,78.97
2023-05-19T12:42:46.390Z,78.62
2023-05-19T12:45:49.697Z,78.80
2023-05-19T12:48:52.598Z,79.03
2023-05-19T12:51:55.417Z,78.82
2023-05-19T12:54:59.888Z,78.50
2023-05-19T12:58:07.788Z,78.39
2023-05-19T13:01:18.668Z,78.34
2023-05-19T13:04:21.848Z,78.87
2023-05-19T13:07:24.776Z,78.99
2023-05-19T13:10:29.025Z,79.11
2023-05-19T13:13:31.918Z,79.11
2023-05-19T13:16:34.755Z,79.09
2023-05-19T13:19:38.017Z,79.14
2023-05-19T13:22:41.287Z,79.11
2023-05-19T13:25:44.084Z,79.14
2023-05-19T13:28:47.856Z,79.11
2023-05-19T13:31:50.826Z,78.87
2023-05-19T13:34:53.674Z,79.01
2023-05-19T13:37:56.795Z,79.25
2023-05-19T13:40:59.591Z,79.37
2023-05-19T13:44:02.573Z,79.62
2023-05-19T13:47:05.774Z,79.35
2023-05-19T13:50:09.160Z,79.55
2023-05-19T13:53:12.040Z,79.44
2023-05-19T13:56:14.860Z,78.97
2023-05-19T13:59:17.836Z,79.00
2023-05-19T14:02:20.639Z,79.15
2023-05-19T14:05:23.697Z,78.92
2023-05-19T14:08:26.940Z,78.78
2023-05-19T14:11:30.063Z,78.62
2023-05-19T14:14:32.947Z,78.60
2023-05-19T14:17:35.818Z,78.48
2023-05-19T14:20:38.744Z,78.63
2023-05-19T14:23:41.887Z,78.81
2023-05-19T14:26:44.905Z,79.01
2023-05-19T14:29:49.038Z,79.03
2023-05-19T14:32:52.375Z,79.41
2023-05-19T14:35:58.977Z,79.81
2023-05-19T14:39:02.202Z,79.79
2023-05-19T14:42:05.530Z,79.96
2023-05-19T14:45:09.263Z,80.14
2023-05-19T14:48:12.688Z,80.23
2023-05-19T14:51:15.651Z,79.95
2023-05-19T14:54:18.492Z,79.82
2023-05-19T14:57:21.264Z,79.93
2023-05-19T15:00:26.274Z,79.87
2023-05-19T15:03:29.193Z,79.79
2023-05-19T15:06:32.233Z,80.03
2023-05-19T15:09:35.050Z,79.93
2023-05-19T15:12:38.085Z,79.92
2023-05-19T15:15:41.045Z,79.96
2023-05-19T15:18:44.013Z,80.13
2023-05-19T15:21:47.198Z,80.24
2023-05-19T15:24:50.137Z,80.24
2023-05-19T15:27:53.026Z,80.34
2023-05-19T15:30:56.138Z,80.25
2023-05-19T15:33:58.984Z,80.41
2023-05-19T15:37:01.813Z,80.40
2023-05-19T15:40:05.552Z,80.62
2023-05-19T15:43:08.377Z,80.67
2023-05-19T15:46:13.499Z,80.60
2023-05-19T15:49:17.968Z,80.92
2023-05-19T15:52:20.834Z,80.52
2023-05-19T15:55:23.649Z,80.56
2023-05-19T15:58:26.557Z,80.26
2023-05-19T16:01:29.861Z,80.27
2023-05-19T16:04:33.403Z,79.97
2023-05-19T16:07:36.248Z,80.39
2023-05-19T16:10:39.567Z,80.48
2023-05-19T16:13:42.466Z,80.62
2023-05-19T16:16:45.340Z,80.43
2023-05-19T16:19:48.199Z,80.51
2023-05-19T16:22:50.944Z,80.41
2023-05-19T16:25:54.934Z,80.47
2023-05-19T16:28:58.009Z,80.59
2023-05-19T16:35:48.840Z,80.60
2023-05-19T16:38:51.790Z,80.56
2023-05-19T16:41:54.769Z,80.76
2023-05-19T16:44:57.650Z,80.88
2023-05-19T16:48:00.758Z,81.05
2023-05-19T16:51:03.877Z,81.17
2023-05-19T16:54:06.776Z,81.35
2023-05-19T16:57:09.971Z,81.29
2023-05-19T17:00:14.296Z,81.54
2023-05-19T17:03:17.326Z,81.99
2023-05-19T17:06:20.363Z,81.85
2023-05-19T17:09:25.428Z,81.90
2023-05-19T17:12:28.547Z,82.12
2023-05-19T17:15:31.935Z,82.32
2023-05-19T17:18:34.995Z,82.19
2023-05-19T17:21:37.921Z,82.40
2023-05-19T17:24:41.315Z,82.40
2023-05-19T17:27:44.837Z,82.59
2023-05-19T17:30:47.800Z,82.56
2023-05-19T17:33:51.213Z,82.67
2023-05-19T17:36:54.198Z,82.57
2023-05-19T17:39:56.969Z,82.57
2023-05-19T17:42:59.812Z,82.47
2023-05-19T17:46:03.206Z,82.74
2023-05-19T17:49:06.860Z,82.84
2023-05-19T17:52:10.157Z,83.03
2023-05-19T17:55:13.779Z,83.08
2023-05-19T17:58:17.767Z,83.06
2023-05-19T18:01:24.238Z,83.20
2023-05-19T18:04:27.581Z,83.45
2023-05-19T18:07:33.293Z,83.58
2023-05-19T18:10:38.154Z,83.62
2023-05-19T18:13:41.027Z,83.87
2023-05-19T18:16:44.214Z,83.65
2023-05-19T18:19:47.292Z,83.86
2023-05-19T18:22:50.702Z,83.91
2023-05-19T18:25:53.665Z,84.26
2023-05-19T18:29:02.621Z,83.95
2023-05-19T18:32:06.295Z,84.23
2023-05-19T18:35:09.847Z,84.07
2023-05-19T18:38:12.821Z,84.07
2023-05-19T18:41:15.998Z,84.17
2023-05-19T18:44:19.072Z,84.27
2023-05-19T18:47:23.182Z,84.18
2023-05-19T18:50:26.058Z,84.16
2023-05-19T18:53:28.888Z,84.29
2023-05-19T18:56:33.350Z,84.08
2023-05-19T18:59:36.484Z,84.05
2023-05-19T19:02:39.933Z,83.99
2023-05-19T19:05:43.151Z,84.17
2023-05-19T19:08:46.249Z,84.10
2023-05-19T19:11:49.074Z,84.19
2023-05-19T19:14:52.397Z,84.00
2023-05-19T19:17:55.891Z,84.17
2023-05-19T19:21:01.320Z,84.37
2023-05-19T19:24:05.077Z,84.36
2023-05-19T19:27:08.067Z,84.08
2023-05-19T19:30:11.193Z,84.34
2023-05-19T19:33:14.276Z,84.39
2023-05-19T19:36:17.856Z,84.27
2023-05-19T19:39:21.666Z,84.36
2023-05-19T19:42:24.760Z,84.47
2023-05-19T19:45:27.870Z,84.57
2023-05-19T19:48:31.308Z,84.76
2023-05-19T19:51:34.327Z,85.02
2023-05-19T19:54:37.336Z,85.05
2023-05-19T19:57:40.298Z,85.28
2023-05-19T20:00:43.237Z,85.25
2023-05-19T20:03:46.380Z,85.36
2023-05-19T20:06:50.044Z,85.45
2023-05-19T20:09:53.013Z,85.24
2023-05-19T20:12:56.187Z,85.41
2023-05-19T20:15:59.105Z,85.34
2023-05-19T20:19:02.276Z,85.41
2023-05-19T20:22:05.282Z,85.50
2023-05-19T20:25:08.708Z,85.62
2023-05-19T20:28:11.769Z,85.37
2023-05-19T20:31:14.552Z,85.52
2023-05-19T20:34:17.484Z,85.61
2023-05-19T20:37:21.685Z,85.50
2023-05-19T20:40:25.126Z,85.56
2023-05-19T20:43:28.191Z,85.41
2023-05-19T20:46:30.986Z,85.43
2023-05-19T20:49:34.525Z,85.52
2023-05-19T20:52:37.323Z,85.30
2023-05-19T20:55:40.391Z,85.43
2023-05-19T20:58:43.201Z,85.45
2023-05-19T21:01:46.480Z,85.12
2023-05-19T21:04:49.830Z,85.30
2023-05-19T21:07:52.699Z,85.56
2023-05-19T21:10:56.145Z,85.55
2023-05-19T21:14:01.452Z,85.53
2023-05-19T21:17:04.924Z,85.74
2023-05-19T21:20:08.640Z,85.61
2023-05-19T21:23:11.606Z,85.59
2023-05-19T21:26:14.371Z,85.43
2023-05-19T21:29:17.348Z,85.52
2023-05-19T21:32:21.098Z,85.78
2023-05-19T21:35:24.249Z,85.55
2023-05-19T21:38:28.050Z,85.48
2023-05-19T21:41:33.850Z,85.46
2023-05-19T21:44:36.598Z,85.73
2023-05-19T21:47:39.585Z,85.59
2023-05-19T21:50:42.544Z,85.59
2023-05-19T21:53:45.376Z,85.53
2023-05-19T21:56:48.201Z,85.63
2023-05-19T21:59:51.088Z,85.58
2023-05-19T22:02:54.024Z,85.45
2023-05-19T22:05:57.199Z,85.50
2023-05-19T22:09:02.358Z,85.62
2023-05-19T22:12:05.738Z,85.87
2023-05-19T22:15:09.250Z,85.75
2023-05-19T22:18:12.368Z,85.63
2023-05-19T22:21:15.151Z,85.72
2023-05-19T22:24:18.674Z,85.92
2023-05-19T22:27:21.682Z,85.57
2023-05-19T22:30:24.642Z,85.47
2023-05-19T22:33:27.561Z,85.52
2023-05-19T22:36:31.304Z,85.61
2023-05-19T22:39:34.103Z,85.42
2023-05-19T22:42:36.983Z,85.65
2023-05-19T22:45:39.957Z,85.53
2023-05-19T22:48:42.991Z,85.51
2023-05-19T22:51:46.086Z,85.34
2023-05-19T22:54:49.027Z,85.57
2023-05-19T22:57:52.020Z,85.36
2023-05-19T23:00:55.153Z,85.37
2023-05-19T23:03:58.209Z,85.24
2023-05-19T23:07:01.362Z,85.51
2023-05-19T23:10:07.629Z,85.40
2023-05-19T23:13:11.976Z,85.44
2023-05-19T23:16:14.981Z,85.53
2023-05-19T23:19:17.789Z,85.45
2023-05-19T23:22:20.865Z,85.40
2023-05-19T23:25:23.865Z,85.44
2023-05-19T23:28:26.942Z,85.66
2023-05-19T23:31:30.024Z,85.74
2023-05-19T23:34:32.994Z,85.74
2023-05-19T23:37:35.937Z,85.75
2023-05-19T23:40:38.809Z,85.77
2023-05-19T23:43:42.103Z,85.86
2023-05-19T23:46:45.228Z,86.00
2023-05-19T23:49:48.978Z,86.09
2023-05-19T23:52:51.843Z,85.82
2023-05-19T23:55:56.039Z,86.05
2023-05-19T23:58:59.441Z,86.25
